sensor_id;sensor_type;location;lat;lon;timestamp;temperature;humidity
50013;DHT22;35901;48.694;9.476;2022-07-29T00:00:49;16.70;99.90
50013;DHT22;35901;48.694;9.476;2022-07-29T00:03:15;16.70;99.90
50013;DHT22;35901;48.694;9.476;2022-07-29T00:05:41;16.70;99.90
50013;DHT22;35901;48.694;9.476;2022-07-29T00:08:08;16.70;99.90
50013;DHT22;35901;48.694;9.476;2022-07-29T00:10:34;16.80;99.90
50013;DHT22;35901;48.694;9.476;2022-07-29T00:13:03;16.80;99.90
50013;DHT22;35901;48.694;9.476;2022-07-29T00:15:29;16.70;99.90
50013;DHT22;35901;48.694;9.476;2022-07-29T00:17:55;16.70;99.90
50013;DHT22;35901;48.694;9.476;2022-07-29T00:20:21;16.70;99.90
50013;DHT22;35901;48.694;9.476;2022-07-29T00:22:46;16.70;99.90
50013;DHT22;35901;48.694;9.476;2022-07-29T00:25:12;16.70;99.90
50013;DHT22;35901;48.694;9.476;2022-07-29T00:27:38;16.70;99.90
50013;DHT22;35901;48.694;9.476;2022-07-29T00:30:05;16.70;99.90
50013;DHT22;35901;48.694;9.476;2022-07-29T00:32:31;16.70;99.90
50013;DHT22;35901;48.694;9.476;2022-07-29T00:34:57;16.70;99.90
50013;DHT22;35901;48.694;9.476;2022-07-29T00:37:41;16.70;99.90
50013;DHT22;35901;48.694;9.476;2022-07-29T00:40:08;16.70;99.90
50013;DHT22;35901;48.694;9.476;2022-07-29T00:42:45;16.70;99.90
50013;DHT22;35901;48.694;9.476;2022-07-29T00:45:12;16.70;99.90
50013;DHT22;35901;48.694;9.476;2022-07-29T00:47:38;16.70;99.90
50013;DHT22;35901;48.694;9.476;2022-07-29T00:50:05;16.70;99.90
50013;DHT22;35901;48.694;9.476;2022-07-29T00:52:32;16.70;99.90
50013;DHT22;35901;48.694;9.476;2022-07-29T00:54:58;16.80;99.90
50013;DHT22;35901;48.694;9.476;2022-07-29T00:57:24;16.80;99.90
50013;DHT22;35901;48.694;9.476;2022-07-29T00:59:50;16.90;99.90
50013;DHT22;35901;48.694;9.476;2022-07-29T01:02:16;16.80;99.90
50013;DHT22;35901;48.694;9.476;2022-07-29T01:04:41;16.80;99.90
50013;DHT22;35901;48.694;9.476;2022-07-29T01:07:07;16.80;99.90
50013;DHT22;35901;48.694;9.476;2022-07-29T01:09:34;16.70;99.90
50013;DHT22;35901;48.694;9.476;2022-07-29T01:12:01;16.70;99.90
50013;DHT22;35901;48.694;9.476;2022-07-29T01:14:28;16.60;99.90
50013;DHT22;35901;48.694;9.476;2022-07-29T01:17:13;16.60;99.90
50013;DHT22;35901;48.694;9.476;2022-07-29T01:19:55;16.60;99.90
50013;DHT22;35901;48.694;9.476;2022-07-29T01:25:17;16.50;99.90
50013;DHT22;35901;48.694;9.476;2022-07-29T01:30:30;16.30;99.90
50013;DHT22;35901;48.694;9.476;2022-07-29T01:33:01;16.30;99.90
50013;DHT22;35901;48.694;9.476;2022-07-29T01:35:34;16.20;99.90
50013;DHT22;35901;48.694;9.476;2022-07-29T01:38:16;16.10;99.90
50013;DHT22;35901;48.694;9.476;2022-07-29T01:40:57;16.00;99.90
50013;DHT22;35901;48.694;9.476;2022-07-29T01:43:31;15.90;99.90
50013;DHT22;35901;48.694;9.476;2022-07-29T01:46:02;15.90;99.90
50013;DHT22;35901;48.694;9.476;2022-07-29T01:48:40;15.90;99.90
50013;DHT22;35901;48.694;9.476;2022-07-29T01:51:18;15.90;99.90
50013;DHT22;35901;48.694;9.476;2022-07-29T01:53:51;15.70;99.90
50013;DHT22;35901;48.694;9.476;2022-07-29T01:56:23;15.70;99.90
50013;DHT22;35901;48.694;9.476;2022-07-29T01:58:49;15.60;99.90
50013;DHT22;35901;48.694;9.476;2022-07-29T02:01:18;15.60;99.90
50013;DHT22;35901;48.694;9.476;2022-07-29T02:03:45;15.60;99.90
50013;DHT22;35901;48.694;9.476;2022-07-29T02:06:12;15.60;99.90
50013;DHT22;35901;48.694;9.476;2022-07-29T02:08:40;15.60;99.90
50013;DHT22;35901;48.694;9.476;2022-07-29T02:11:08;15.50;99.90
50013;DHT22;35901;48.694;9.476;2022-07-29T02:13:36;15.50;99.90
50013;DHT22;35901;48.694;9.476;2022-07-29T02:16:03;15.50;99.90
50013;DHT22;35901;48.694;9.476;2022-07-29T02:18:31;15.40;99.90
50013;DHT22;35901;48.694;9.476;2022-07-29T02:20:59;15.40;99.90
50013;DHT22;35901;48.694;9.476;2022-07-29T02:23:26;15.30;99.90
50013;DHT22;35901;48.694;9.476;2022-07-29T02:25:54;15.40;99.90
50013;DHT22;35901;48.694;9.476;2022-07-29T02:28:22;15.30;99.90
50013;DHT22;35901;48.694;9.476;2022-07-29T02:30:50;15.30;99.90
50013;DHT22;35901;48.694;9.476;2022-07-29T02:33:18;15.30;99.90
50013;DHT22;35901;48.694;9.476;2022-07-29T02:35:46;15.30;99.90
50013;DHT22;35901;48.694;9.476;2022-07-29T02:38:15;15.30;99.90
50013;DHT22;35901;48.694;9.476;2022-07-29T02:41:06;15.30;99.90
50013;DHT22;35901;48.694;9.476;2022-07-29T02:43:34;15.20;99.90
50013;DHT22;35901;48.694;9.476;2022-07-29T02:46:04;15.10;99.90
50013;DHT22;35901;48.694;9.476;2022-07-29T02:48:37;15.10;99.90
50013;DHT22;35901;48.694;9.476;2022-07-29T02:51:25;15.00;99.90
50013;DHT22;35901;48.694;9.476;2022-07-29T02:53:54;15.00;99.90
50013;DHT22;35901;48.694;9.476;2022-07-29T02:56:25;15.00;99.90
50013;DHT22;35901;48.694;9.476;2022-07-29T02:58:58;15.00;99.90
50013;DHT22;35901;48.694;9.476;2022-07-29T03:01:27;14.90;99.90
50013;DHT22;35901;48.694;9.476;2022-07-29T03:03:55;14.80;99.90
50013;DHT22;35901;48.694;9.476;2022-07-29T03:06:23;14.70;99.90
50013;DHT22;35901;48.694;9.476;2022-07-29T03:08:51;14.60;99.90
50013;DHT22;35901;48.694;9.476;2022-07-29T03:11:17;14.60;99.90
50013;DHT22;35901;48.694;9.476;2022-07-29T03:13:44;14.60;99.90
50013;DHT22;35901;48.694;9.476;2022-07-29T03:16:10;14.60;99.90
50013;DHT22;35901;48.694;9.476;2022-07-29T03:18:37;14.60;99.90
50013;DHT22;35901;48.694;9.476;2022-07-29T03:21:04;14.60;99.90
50013;DHT22;35901;48.694;9.476;2022-07-29T03:23:29;14.50;99.90
50013;DHT22;35901;48.694;9.476;2022-07-29T03:25:56;14.50;99.90
50013;DHT22;35901;48.694;9.476;2022-07-29T03:28:22;14.50;99.90
50013;DHT22;35901;48.694;9.476;2022-07-29T03:30:49;14.40;99.90
50013;DHT22;35901;48.694;9.476;2022-07-29T03:33:15;14.40;99.90
50013;DHT22;35901;48.694;9.476;2022-07-29T03:35:41;14.60;99.90
50013;DHT22;35901;48.694;9.476;2022-07-29T03:38:07;14.60;99.90
50013;DHT22;35901;48.694;9.476;2022-07-29T03:40:53;14.50;99.90
50013;DHT22;35901;48.694;9.476;2022-07-29T03:43:20;14.50;99.90
50013;DHT22;35901;48.694;9.476;2022-07-29T03:45:50;14.60;99.90
50013;DHT22;35901;48.694;9.476;2022-07-29T03:48:20;14.50;99.90
50013;DHT22;35901;48.694;9.476;2022-07-29T03:50:48;14.40;99.90
50013;DHT22;35901;48.694;9.476;2022-07-29T03:53:13;14.30;99.90
50013;DHT22;35901;48.694;9.476;2022-07-29T03:55:48;14.20;99.90
50013;DHT22;35901;48.694;9.476;2022-07-29T03:58:16;14.20;99.90
50013;DHT22;35901;48.694;9.476;2022-07-29T04:00:43;14.20;99.90
50013;DHT22;35901;48.694;9.476;2022-07-29T04:03:09;14.30;99.90
50013;DHT22;35901;48.694;9.476;2022-07-29T04:05:35;14.30;99.90
50013;DHT22;35901;48.694;9.476;2022-07-29T04:08:01;14.40;99.90
50013;DHT22;35901;48.694;9.476;2022-07-29T04:10:27;14.40;99.90
50013;DHT22;35901;48.694;9.476;2022-07-29T04:12:52;14.50;99.90
50013;DHT22;35901;48.694;9.476;2022-07-29T04:15:19;14.50;99.90
50013;DHT22;35901;48.694;9.476;2022-07-29T04:17:45;14.50;99.90
50013;DHT22;35901;48.694;9.476;2022-07-29T04:20:10;14.60;99.90
50013;DHT22;35901;48.694;9.476;2022-07-29T04:22:41;14.60;99.90
50013;DHT22;35901;48.694;9.476;2022-07-29T04:25:08;14.70;99.90
50013;DHT22;35901;48.694;9.476;2022-07-29T04:27:33;14.70;99.90
50013;DHT22;35901;48.694;9.476;2022-07-29T04:29:59;14.70;99.90
50013;DHT22;35901;48.694;9.476;2022-07-29T04:32:25;14.70;99.90
50013;DHT22;35901;48.694;9.476;2022-07-29T04:34:51;14.80;99.90
50013;DHT22;35901;48.694;9.476;2022-07-29T04:37:18;14.80;99.90
50013;DHT22;35901;48.694;9.476;2022-07-29T04:39:43;14.80;99.90
50013;DHT22;35901;48.694;9.476;2022-07-29T04:42:09;14.80;99.90
50013;DHT22;35901;48.694;9.476;2022-07-29T04:44:35;14.70;99.90
50013;DHT22;35901;48.694;9.476;2022-07-29T04:47:00;14.80;99.90
50013;DHT22;35901;48.694;9.476;2022-07-29T04:49:26;14.80;99.90
50013;DHT22;35901;48.694;9.476;2022-07-29T04:51:53;14.80;99.90
50013;DHT22;35901;48.694;9.476;2022-07-29T04:54:19;14.90;99.90
50013;DHT22;35901;48.694;9.476;2022-07-29T04:56:44;14.90;99.90
50013;DHT22;35901;48.694;9.476;2022-07-29T04:59:11;15.00;99.90
50013;DHT22;35901;48.694;9.476;2022-07-29T05:01:37;15.00;99.90
50013;DHT22;35901;48.694;9.476;2022-07-29T05:04:03;15.00;99.90
50013;DHT22;35901;48.694;9.476;2022-07-29T05:06:28;15.00;99.90
50013;DHT22;35901;48.694;9.476;2022-07-29T05:08:54;15.00;99.90
50013;DHT22;35901;48.694;9.476;2022-07-29T05:11:20;15.20;99.90
50013;DHT22;35901;48.694;9.476;2022-07-29T05:13:45;15.40;99.90
50013;DHT22;35901;48.694;9.476;2022-07-29T05:16:11;16.00;99.90
50013;DHT22;35901;48.694;9.476;2022-07-29T05:18:37;16.50;99.90
50013;DHT22;35901;48.694;9.476;2022-07-29T05:21:03;16.80;99.90
50013;DHT22;35901;48.694;9.476;2022-07-29T05:23:28;17.10;99.90
50013;DHT22;35901;48.694;9.476;2022-07-29T05:25:57;17.30;99.90
50013;DHT22;35901;48.694;9.476;2022-07-29T05:28:23;17.20;99.90
50013;DHT22;35901;48.694;9.476;2022-07-29T05:30:48;17.20;99.90
50013;DHT22;35901;48.694;9.476;2022-07-29T05:33:14;17.20;99.90
50013;DHT22;35901;48.694;9.476;2022-07-29T05:35:40;17.70;99.90
50013;DHT22;35901;48.694;9.476;2022-07-29T05:38:06;18.60;99.90
50013;DHT22;35901;48.694;9.476;2022-07-29T05:40:33;18.80;99.90
50013;DHT22;35901;48.694;9.476;2022-07-29T05:42:59;18.90;99.90
50013;DHT22;35901;48.694;9.476;2022-07-29T05:45:25;19.10;99.90
50013;DHT22;35901;48.694;9.476;2022-07-29T05:47:51;18.80;99.90
50013;DHT22;35901;48.694;9.476;2022-07-29T05:50:17;18.60;99.90
50013;DHT22;35901;48.694;9.476;2022-07-29T05:52:42;18.50;99.90
50013;DHT22;35901;48.694;9.476;2022-07-29T05:55:08;18.30;99.90
50013;DHT22;35901;48.694;9.476;2022-07-29T05:57:34;18.30;99.90
50013;DHT22;35901;48.694;9.476;2022-07-29T06:00:00;18.30;99.90
50013;DHT22;35901;48.694;9.476;2022-07-29T06:02:25;18.80;99.90
50013;DHT22;35901;48.694;9.476;2022-07-29T06:04:51;19.70;99.90
50013;DHT22;35901;48.694;9.476;2022-07-29T06:07:17;20.60;99.90
50013;DHT22;35901;48.694;9.476;2022-07-29T06:09:43;21.40;99.90
50013;DHT22;35901;48.694;9.476;2022-07-29T06:12:11;22.00;99.90
50013;DHT22;35901;48.694;9.476;2022-07-29T06:14:36;22.40;99.90
50013;DHT22;35901;48.694;9.476;2022-07-29T06:17:04;22.20;99.90
50013;DHT22;35901;48.694;9.476;2022-07-29T06:19:30;22.00;99.90
50013;DHT22;35901;48.694;9.476;2022-07-29T06:21:56;22.10;99.90
50013;DHT22;35901;48.694;9.476;2022-07-29T06:24:22;22.30;99.90
50013;DHT22;35901;48.694;9.476;2022-07-29T06:26:47;21.80;99.90
50013;DHT22;35901;48.694;9.476;2022-07-29T06:29:13;21.00;99.90
50013;DHT22;35901;48.694;9.476;2022-07-29T06:31:39;20.50;99.90
50013;DHT22;35901;48.694;9.476;2022-07-29T06:34:05;20.30;99.90
50013;DHT22;35901;48.694;9.476;2022-07-29T06:36:34;20.20;99.90
50013;DHT22;35901;48.694;9.476;2022-07-29T06:39:01;20.50;99.90
50013;DHT22;35901;48.694;9.476;2022-07-29T06:41:26;21.40;99.90
50013;DHT22;35901;48.694;9.476;2022-07-29T06:43:52;22.20;99.90
50013;DHT22;35901;48.694;9.476;2022-07-29T06:46:19;22.20;99.90
50013;DHT22;35901;48.694;9.476;2022-07-29T06:48:45;22.50;99.90
50013;DHT22;35901;48.694;9.476;2022-07-29T06:51:11;22.90;99.90
50013;DHT22;35901;48.694;9.476;2022-07-29T06:53:38;23.00;99.90
50013;DHT22;35901;48.694;9.476;2022-07-29T06:56:05;22.80;99.90
50013;DHT22;35901;48.694;9.476;2022-07-29T06:58:31;22.90;99.90
50013;DHT22;35901;48.694;9.476;2022-07-29T07:00:58;22.90;99.90
50013;DHT22;35901;48.694;9.476;2022-07-29T07:03:26;23.10;99.90
50013;DHT22;35901;48.694;9.476;2022-07-29T07:05:53;23.40;99.90
50013;DHT22;35901;48.694;9.476;2022-07-29T07:08:19;23.50;99.90
50013;DHT22;35901;48.694;9.476;2022-07-29T07:10:46;23.70;99.90
50013;DHT22;35901;48.694;9.476;2022-07-29T07:13:12;24.30;99.90
50013;DHT22;35901;48.694;9.476;2022-07-29T07:15:37;24.30;99.90
50013;DHT22;35901;48.694;9.476;2022-07-29T07:18:04;24.50;99.90
50013;DHT22;35901;48.694;9.476;2022-07-29T07:20:32;25.00;99.90
50013;DHT22;35901;48.694;9.476;2022-07-29T07:22:57;24.80;99.90
50013;DHT22;35901;48.694;9.476;2022-07-29T07:25:23;24.50;99.70
50013;DHT22;35901;48.694;9.476;2022-07-29T07:27:49;24.50;99.70
50013;DHT22;35901;48.694;9.476;2022-07-29T07:30:15;24.70;98.70
50013;DHT22;35901;48.694;9.476;2022-07-29T07:32:40;24.90;97.90
50013;DHT22;35901;48.694;9.476;2022-07-29T07:35:07;25.00;96.90
50013;DHT22;35901;48.694;9.476;2022-07-29T07:37:34;24.40;98.00
50013;DHT22;35901;48.694;9.476;2022-07-29T07:40:00;24.60;99.10
50013;DHT22;35901;48.694;9.476;2022-07-29T07:42:26;25.60;96.00
50013;DHT22;35901;48.694;9.476;2022-07-29T07:44:53;25.20;95.40
50013;DHT22;35901;48.694;9.476;2022-07-29T07:47:19;24.80;96.10
50013;DHT22;35901;48.694;9.476;2022-07-29T07:49:50;24.10;96.00
50013;DHT22;35901;48.694;9.476;2022-07-29T07:52:17;23.40;96.80
50013;DHT22;35901;48.694;9.476;2022-07-29T07:54:43;23.00;98.00
50013;DHT22;35901;48.694;9.476;2022-07-29T07:57:11;22.90;99.90
50013;DHT22;35901;48.694;9.476;2022-07-29T07:59:38;23.10;99.90
50013;DHT22;35901;48.694;9.476;2022-07-29T08:02:05;23.70;99.40
50013;DHT22;35901;48.694;9.476;2022-07-29T08:04:32;24.00;98.90
50013;DHT22;35901;48.694;9.476;2022-07-29T08:06:58;24.40;97.50
50013;DHT22;35901;48.694;9.476;2022-07-29T08:09:26;24.50;97.70
50013;DHT22;35901;48.694;9.476;2022-07-29T08:11:52;24.80;96.70
50013;DHT22;35901;48.694;9.476;2022-07-29T08:14:19;25.00;97.30
50013;DHT22;35901;48.694;9.476;2022-07-29T08:16:45;24.80;97.10
50013;DHT22;35901;48.694;9.476;2022-07-29T08:19:11;25.00;97.50
50013;DHT22;35901;48.694;9.476;2022-07-29T08:21:37;25.60;96.10
50013;DHT22;35901;48.694;9.476;2022-07-29T08:24:03;25.80;94.90
50013;DHT22;35901;48.694;9.476;2022-07-29T08:26:47;25.60;94.80
50013;DHT22;35901;48.694;9.476;2022-07-29T08:29:13;25.50;95.60
50013;DHT22;35901;48.694;9.476;2022-07-29T08:31:39;25.80;95.30
50013;DHT22;35901;48.694;9.476;2022-07-29T08:34:06;25.80;94.30
50013;DHT22;35901;48.694;9.476;2022-07-29T08:36:32;25.70;94.30
50013;DHT22;35901;48.694;9.476;2022-07-29T08:38:58;25.70;94.90
50013;DHT22;35901;48.694;9.476;2022-07-29T08:41:25;26.10;94.80
50013;DHT22;35901;48.694;9.476;2022-07-29T08:43:51;26.40;94.10
50013;DHT22;35901;48.694;9.476;2022-07-29T08:46:18;26.60;93.50
50013;DHT22;35901;48.694;9.476;2022-07-29T08:48:44;26.80;92.40
50013;DHT22;35901;48.694;9.476;2022-07-29T08:51:15;26.70;92.30
50013;DHT22;35901;48.694;9.476;2022-07-29T08:53:42;26.60;92.20
50013;DHT22;35901;48.694;9.476;2022-07-29T08:56:12;26.60;92.00
50013;DHT22;35901;48.694;9.476;2022-07-29T08:58:39;26.80;91.80
50013;DHT22;35901;48.694;9.476;2022-07-29T09:01:06;26.60;91.30
50013;DHT22;35901;48.694;9.476;2022-07-29T09:03:34;26.90;90.70
50013;DHT22;35901;48.694;9.476;2022-07-29T09:06:02;26.90;91.30
50013;DHT22;35901;48.694;9.476;2022-07-29T09:08:29;27.00;91.10
50013;DHT22;35901;48.694;9.476;2022-07-29T09:10:56;27.00;91.20
50013;DHT22;35901;48.694;9.476;2022-07-29T09:13:22;27.00;91.80
50013;DHT22;35901;48.694;9.476;2022-07-29T09:15:49;27.30;91.50
50013;DHT22;35901;48.694;9.476;2022-07-29T09:18:35;27.40;90.70
50013;DHT22;35901;48.694;9.476;2022-07-29T09:21:02;27.60;88.70
50013;DHT22;35901;48.694;9.476;2022-07-29T09:26:31;27.20;87.60
50013;DHT22;35901;48.694;9.476;2022-07-29T09:28:58;27.30;88.10
50013;DHT22;35901;48.694;9.476;2022-07-29T09:31:36;27.40;89.30
50013;DHT22;35901;48.694;9.476;2022-07-29T09:34:03;27.70;88.80
50013;DHT22;35901;48.694;9.476;2022-07-29T09:36:29;27.70;86.80
50013;DHT22;35901;48.694;9.476;2022-07-29T09:38:59;27.80;86.80
50013;DHT22;35901;48.694;9.476;2022-07-29T09:41:29;27.80;85.80
50013;DHT22;35901;48.694;9.476;2022-07-29T09:43:59;27.90;84.70
50013;DHT22;35901;48.694;9.476;2022-07-29T09:46:25;28.00;84.40
50013;DHT22;35901;48.694;9.476;2022-07-29T09:49:12;28.00;84.60
50013;DHT22;35901;48.694;9.476;2022-07-29T09:51:38;28.30;84.20
50013;DHT22;35901;48.694;9.476;2022-07-29T09:54:26;28.50;83.10
50013;DHT22;35901;48.694;9.476;2022-07-29T09:56:54;28.50;82.40
50013;DHT22;35901;48.694;9.476;2022-07-29T09:59:20;28.30;80.90
50013;DHT22;35901;48.694;9.476;2022-07-29T10:01:49;27.90;81.90
50013;DHT22;35901;48.694;9.476;2022-07-29T10:04:16;27.70;79.70
50013;DHT22;35901;48.694;9.476;2022-07-29T10:07:00;27.40;79.60
50013;DHT22;35901;48.694;9.476;2022-07-29T10:09:27;27.10;78.50
50013;DHT22;35901;48.694;9.476;2022-07-29T10:12:22;27.00;79.40
50013;DHT22;35901;48.694;9.476;2022-07-29T10:14:50;27.10;77.40
50013;DHT22;35901;48.694;9.476;2022-07-29T10:17:17;27.30;78.40
50013;DHT22;35901;48.694;9.476;2022-07-29T10:19:44;27.40;75.80
50013;DHT22;35901;48.694;9.476;2022-07-29T10:22:11;27.70;76.00
50013;DHT22;35901;48.694;9.476;2022-07-29T10:24:38;28.30;76.20
50013;DHT22;35901;48.694;9.476;2022-07-29T10:27:07;28.50;76.10
50013;DHT22;35901;48.694;9.476;2022-07-29T10:29:34;28.50;76.30
50013;DHT22;35901;48.694;9.476;2022-07-29T10:34:46;28.90;76.20
50013;DHT22;35901;48.694;9.476;2022-07-29T10:37:22;29.50;75.20
50013;DHT22;35901;48.694;9.476;2022-07-29T10:42:55;30.50;73.00
50013;DHT22;35901;48.694;9.476;2022-07-29T10:45:23;30.70;71.10
50013;DHT22;35901;48.694;9.476;2022-07-29T10:48:02;30.50;69.50
50013;DHT22;35901;48.694;9.476;2022-07-29T10:53:18;29.60;70.10
50013;DHT22;35901;48.694;9.476;2022-07-29T10:55:46;29.10;71.10
50013;DHT22;35901;48.694;9.476;2022-07-29T10:58:23;28.80;72.00
50013;DHT22;35901;48.694;9.476;2022-07-29T11:00:51;28.50;72.30
50013;DHT22;35901;48.694;9.476;2022-07-29T11:03:43;28.40;73.20
50013;DHT22;35901;48.694;9.476;2022-07-29T11:06:10;28.40;74.60
50013;DHT22;35901;48.694;9.476;2022-07-29T11:08:35;28.20;73.90
50013;DHT22;35901;48.694;9.476;2022-07-29T11:13:50;27.60;75.20
50013;DHT22;35901;48.694;9.476;2022-07-29T11:16:19;27.40;75.90
50013;DHT22;35901;48.694;9.476;2022-07-29T11:21:39;27.10;78.00
50013;DHT22;35901;48.694;9.476;2022-07-29T11:24:22;27.30;78.40
50013;DHT22;35901;48.694;9.476;2022-07-29T11:29:41;27.50;78.50
50013;DHT22;35901;48.694;9.476;2022-07-29T11:32:15;27.40;77.50
50013;DHT22;35901;48.694;9.476;2022-07-29T11:34:43;27.20;77.30
50013;DHT22;35901;48.694;9.476;2022-07-29T11:47:54;25.80;80.30
50013;DHT22;35901;48.694;9.476;2022-07-29T11:50:31;25.60;81.30
50013;DHT22;35901;48.694;9.476;2022-07-29T11:52:58;24.80;76.60
50013;DHT22;35901;48.694;9.476;2022-07-29T11:55:24;23.70;77.30
50013;DHT22;35901;48.694;9.476;2022-07-29T11:57:55;22.90;78.20
50013;DHT22;35901;48.694;9.476;2022-07-29T12:00:30;22.40;79.70
50013;DHT22;35901;48.694;9.476;2022-07-29T12:02:58;21.90;81.70
50013;DHT22;35901;48.694;9.476;2022-07-29T12:08:11;21.50;86.30
50013;DHT22;35901;48.694;9.476;2022-07-29T12:10:38;21.30;85.90
50013;DHT22;35901;48.694;9.476;2022-07-29T12:13:04;21.20;86.40
50013;DHT22;35901;48.694;9.476;2022-07-29T12:15:30;21.30;87.70
50013;DHT22;35901;48.694;9.476;2022-07-29T12:17:56;21.30;89.40
50013;DHT22;35901;48.694;9.476;2022-07-29T12:20:29;21.20;90.40
50013;DHT22;35901;48.694;9.476;2022-07-29T12:22:55;21.10;92.10
50013;DHT22;35901;48.694;9.476;2022-07-29T12:25:24;20.90;96.00
50013;DHT22;35901;48.694;9.476;2022-07-29T12:27:59;20.80;99.90
50013;DHT22;35901;48.694;9.476;2022-07-29T12:30:47;20.90;99.90
50013;DHT22;35901;48.694;9.476;2022-07-29T12:33:22;21.10;99.90
50013;DHT22;35901;48.694;9.476;2022-07-29T12:35:51;21.10;99.90
50013;DHT22;35901;48.694;9.476;2022-07-29T12:38:17;21.20;99.90
50013;DHT22;35901;48.694;9.476;2022-07-29T12:40:45;21.40;99.90
50013;DHT22;35901;48.694;9.476;2022-07-29T12:43:19;21.50;99.90
50013;DHT22;35901;48.694;9.476;2022-07-29T12:45:49;21.80;99.90
50013;DHT22;35901;48.694;9.476;2022-07-29T12:48:18;22.10;99.90
50013;DHT22;35901;48.694;9.476;2022-07-29T12:50:59;22.20;99.90
50013;DHT22;35901;48.694;9.476;2022-07-29T12:53:27;22.30;99.90
50013;DHT22;35901;48.694;9.476;2022-07-29T12:55:54;22.40;99.90
50013;DHT22;35901;48.694;9.476;2022-07-29T12:58:32;22.30;99.90
50013;DHT22;35901;48.694;9.476;2022-07-29T13:01:13;22.20;99.90
50013;DHT22;35901;48.694;9.476;2022-07-29T13:06:40;21.60;99.90
50013;DHT22;35901;48.694;9.476;2022-07-29T13:09:14;21.40;99.90
50013;DHT22;35901;48.694;9.476;2022-07-29T13:11:50;21.10;99.90
50013;DHT22;35901;48.694;9.476;2022-07-29T13:17:04;20.70;99.90
50013;DHT22;35901;48.694;9.476;2022-07-29T13:19:38;20.70;99.90
50013;DHT22;35901;48.694;9.476;2022-07-29T13:22:07;20.60;99.90
50013;DHT22;35901;48.694;9.476;2022-07-29T13:24:33;20.50;99.90
50013;DHT22;35901;48.694;9.476;2022-07-29T13:27:00;20.50;99.90
50013;DHT22;35901;48.694;9.476;2022-07-29T13:29:26;20.30;99.90
50013;DHT22;35901;48.694;9.476;2022-07-29T13:31:52;20.20;99.90
50013;DHT22;35901;48.694;9.476;2022-07-29T13:34:18;20.10;99.90
50013;DHT22;35901;48.694;9.476;2022-07-29T13:36:47;19.80;99.90
50013;DHT22;35901;48.694;9.476;2022-07-29T13:39:12;19.70;99.90
50013;DHT22;35901;48.694;9.476;2022-07-29T13:41:38;19.70;99.90
50013;DHT22;35901;48.694;9.476;2022-07-29T13:44:04;19.80;99.90
50013;DHT22;35901;48.694;9.476;2022-07-29T13:46:29;20.10;99.90
50013;DHT22;35901;48.694;9.476;2022-07-29T13:48:55;20.30;99.90
50013;DHT22;35901;48.694;9.476;2022-07-29T13:51:21;20.50;99.90
50013;DHT22;35901;48.694;9.476;2022-07-29T13:53:46;20.70;99.90
50013;DHT22;35901;48.694;9.476;2022-07-29T13:56:12;20.80;99.90
50013;DHT22;35901;48.694;9.476;2022-07-29T13:58:38;20.90;99.90
50013;DHT22;35901;48.694;9.476;2022-07-29T14:01:03;20.90;99.90
50013;DHT22;35901;48.694;9.476;2022-07-29T14:03:29;20.90;99.90
50013;DHT22;35901;48.694;9.476;2022-07-29T14:05:55;20.90;99.90
50013;DHT22;35901;48.694;9.476;2022-07-29T14:08:21;20.80;99.90
50013;DHT22;35901;48.694;9.476;2022-07-29T14:10:47;20.70;99.90
50013;DHT22;35901;48.694;9.476;2022-07-29T14:13:13;20.60;99.90
50013;DHT22;35901;48.694;9.476;2022-07-29T14:15:38;20.60;99.90
50013;DHT22;35901;48.694;9.476;2022-07-29T14:18:04;20.60;99.90
50013;DHT22;35901;48.694;9.476;2022-07-29T14:20:31;20.50;99.90
50013;DHT22;35901;48.694;9.476;2022-07-29T14:22:57;20.50;99.90
50013;DHT22;35901;48.694;9.476;2022-07-29T14:25:23;20.60;99.90
50013;DHT22;35901;48.694;9.476;2022-07-29T14:27:49;20.70;99.90
50013;DHT22;35901;48.694;9.476;2022-07-29T14:30:15;20.80;99.90
50013;DHT22;35901;48.694;9.476;2022-07-29T14:32:40;20.80;99.90
50013;DHT22;35901;48.694;9.476;2022-07-29T14:35:06;20.90;99.90
50013;DHT22;35901;48.694;9.476;2022-07-29T14:37:33;21.00;99.90
50013;DHT22;35901;48.694;9.476;2022-07-29T14:40:01;21.10;99.90
50013;DHT22;35901;48.694;9.476;2022-07-29T14:42:29;21.20;99.90
50013;DHT22;35901;48.694;9.476;2022-07-29T14:44:56;21.20;99.90
50013;DHT22;35901;48.694;9.476;2022-07-29T14:47:22;21.20;99.90
50013;DHT22;35901;48.694;9.476;2022-07-29T14:49:49;21.20;99.90
50013;DHT22;35901;48.694;9.476;2022-07-29T14:52:15;21.10;99.90
50013;DHT22;35901;48.694;9.476;2022-07-29T14:54:40;21.10;99.90
50013;DHT22;35901;48.694;9.476;2022-07-29T14:57:06;21.10;99.90
50013;DHT22;35901;48.694;9.476;2022-07-29T14:59:32;21.30;99.90
50013;DHT22;35901;48.694;9.476;2022-07-29T15:01:57;21.50;99.90
50013;DHT22;35901;48.694;9.476;2022-07-29T15:04:23;21.50;99.90
50013;DHT22;35901;48.694;9.476;2022-07-29T15:06:49;21.50;99.90
50013;DHT22;35901;48.694;9.476;2022-07-29T15:09:15;21.40;99.90
50013;DHT22;35901;48.694;9.476;2022-07-29T15:11:42;21.50;99.90
50013;DHT22;35901;48.694;9.476;2022-07-29T15:14:08;21.40;99.90
50013;DHT22;35901;48.694;9.476;2022-07-29T15:16:39;21.40;99.90
50013;DHT22;35901;48.694;9.476;2022-07-29T15:19:05;21.40;99.90
50013;DHT22;35901;48.694;9.476;2022-07-29T15:21:32;21.40;99.90
50013;DHT22;35901;48.694;9.476;2022-07-29T15:23:57;21.40;99.90
50013;DHT22;35901;48.694;9.476;2022-07-29T15:26:23;21.50;99.90
50013;DHT22;35901;48.694;9.476;2022-07-29T15:28:49;21.50;99.90
50013;DHT22;35901;48.694;9.476;2022-07-29T15:31:14;21.50;99.90
50013;DHT22;35901;48.694;9.476;2022-07-29T15:33:40;21.50;99.90
50013;DHT22;35901;48.694;9.476;2022-07-29T15:36:06;21.50;99.90
50013;DHT22;35901;48.694;9.476;2022-07-29T15:38:31;21.50;99.90
50013;DHT22;35901;48.694;9.476;2022-07-29T15:40:58;21.60;99.90
50013;DHT22;35901;48.694;9.476;2022-07-29T15:43:24;21.60;99.90
50013;DHT22;35901;48.694;9.476;2022-07-29T15:45:49;21.60;99.90
50013;DHT22;35901;48.694;9.476;2022-07-29T15:48:37;21.50;99.90
50013;DHT22;35901;48.694;9.476;2022-07-29T15:51:03;21.50;99.90
50013;DHT22;35901;48.694;9.476;2022-07-29T15:53:29;21.60;99.90
50013;DHT22;35901;48.694;9.476;2022-07-29T15:55:56;21.50;99.90
50013;DHT22;35901;48.694;9.476;2022-07-29T15:58:23;21.50;99.90
50013;DHT22;35901;48.694;9.476;2022-07-29T16:00:49;21.60;99.90
50013;DHT22;35901;48.694;9.476;2022-07-29T16:03:15;21.60;99.90
50013;DHT22;35901;48.694;9.476;2022-07-29T16:05:41;21.60;99.90
50013;DHT22;35901;48.694;9.476;2022-07-29T16:08:07;21.60;99.90
50013;DHT22;35901;48.694;9.476;2022-07-29T16:10:35;21.50;99.90
50013;DHT22;35901;48.694;9.476;2022-07-29T16:13:01;21.60;99.90
50013;DHT22;35901;48.694;9.476;2022-07-29T16:15:26;21.70;99.90
50013;DHT22;35901;48.694;9.476;2022-07-29T16:17:52;21.80;99.90
50013;DHT22;35901;48.694;9.476;2022-07-29T16:20:18;22.00;99.90